sensor_id;sensor_type;location;lat;lon;timestamp;pressure;altitude;pressure_sealevel;temperature;humidity
19114;BME280;9689;51.052;13.772;2022-12-18T00:02:31;101970.19;;;-7.09;84.79
19114;BME280;9689;51.052;13.772;2022-12-18T00:07:35;101977.03;;;-7.08;85.26
19114;BME280;9689;51.052;13.772;2022-12-18T00:12:36;101974.78;;;-7.15;84.42
19114;BME280;9689;51.052;13.772;2022-12-18T00:17:37;101993.94;;;-7.19;84.28
19114;BME280;9689;51.052;13.772;2022-12-18T00:22:39;102007.13;;;-7.23;84.65
19114;BME280;9689;51.052;13.772;2022-12-18T00:27:40;102001.88;;;-7.14;85.23
19114;BME280;9689;51.052;13.772;2022-12-18T00:32:40;102006.88;;;-7.26;84.25
19114;BME280;9689;51.052;13.772;2022-12-18T00:37:43;102009.19;;;-7.29;83.94
19114;BME280;9689;51.052;13.772;2022-12-18T00:42:43;102014.88;;;-7.31;83.78
19114;BME280;9689;51.052;13.772;2022-12-18T00:47:56;102029.72;;;-7.36;83.84
19114;BME280;9689;51.052;13.772;2022-12-18T00:52:59;102029.88;;;-7.45;83.96
19114;BME280;9689;51.052;13.772;2022-12-18T00:57:59;102028.88;;;-7.47;84.18
19114;BME280;9689;51.052;13.772;2022-12-18T01:03:00;102024.53;;;-7.48;84.19
19114;BME280;9689;51.052;13.772;2022-12-18T01:08:03;102022.03;;;-7.58;84.11
19114;BME280;9689;51.052;13.772;2022-12-18T01:13:04;102034.56;;;-7.49;83.50
19114;BME280;9689;51.052;13.772;2022-12-18T01:18:05;102029.13;;;-7.54;83.57
19114;BME280;9689;51.052;13.772;2022-12-18T01:23:07;102038.16;;;-7.68;82.82
19114;BME280;9689;51.052;13.772;2022-12-18T01:28:08;102048.03;;;-7.71;82.72
19114;BME280;9689;51.052;13.772;2022-12-18T01:33:09;102047.28;;;-7.80;82.86
19114;BME280;9689;51.052;13.772;2022-12-18T01:38:11;102054.00;;;-7.80;82.10
19114;BME280;9689;51.052;13.772;2022-12-18T01:43:12;102049.44;;;-7.84;81.92
19114;BME280;9689;51.052;13.772;2022-12-18T01:48:13;102047.78;;;-7.94;81.62
19114;BME280;9689;51.052;13.772;2022-12-18T01:53:19;102041.50;;;-7.99;81.60
19114;BME280;9689;51.052;13.772;2022-12-18T01:58:24;102053.34;;;-8.08;81.96
19114;BME280;9689;51.052;13.772;2022-12-18T02:03:28;102054.41;;;-8.16;81.73
19114;BME280;9689;51.052;13.772;2022-12-18T02:08:34;102044.13;;;-8.18;81.86
19114;BME280;9689;51.052;13.772;2022-12-18T02:13:46;102053.25;;;-8.20;82.12
19114;BME280;9689;51.052;13.772;2022-12-18T02:18:55;102054.88;;;-8.20;81.84
19114;BME280;9689;51.052;13.772;2022-12-18T02:24:10;102046.94;;;-8.25;81.42
19114;BME280;9689;51.052;13.772;2022-12-18T02:29:20;102048.06;;;-8.21;80.99
19114;BME280;9689;51.052;13.772;2022-12-18T02:34:28;102064.22;;;-8.19;81.14
19114;BME280;9689;51.052;13.772;2022-12-18T02:39:32;102061.34;;;-8.44;82.01
19114;BME280;9689;51.052;13.772;2022-12-18T02:44:43;102053.00;;;-8.13;80.93
19114;BME280;9689;51.052;13.772;2022-12-18T02:49:53;102059.69;;;-8.03;80.61
19114;BME280;9689;51.052;13.772;2022-12-18T02:55:10;102059.94;;;-8.00;80.12
19114;BME280;9689;51.052;13.772;2022-12-18T03:00:19;102058.28;;;-8.00;80.12
19114;BME280;9689;51.052;13.772;2022-12-18T03:05:25;102062.47;;;-8.00;79.81
19114;BME280;9689;51.052;13.772;2022-12-18T03:10:33;102069.03;;;-7.92;80.63
19114;BME280;9689;51.052;13.772;2022-12-18T03:15:41;102067.53;;;-7.90;79.83
19114;BME280;9689;51.052;13.772;2022-12-18T03:20:45;102064.13;;;-7.90;80.72
19114;BME280;9689;51.052;13.772;2022-12-18T03:25:54;102069.66;;;-7.84;79.47
19114;BME280;9689;51.052;13.772;2022-12-18T03:31:05;102073.47;;;-7.79;79.90
19114;BME280;9689;51.052;13.772;2022-12-18T03:36:09;102072.59;;;-7.80;79.29
19114;BME280;9689;51.052;13.772;2022-12-18T03:41:16;102073.47;;;-7.79;78.86
19114;BME280;9689;51.052;13.772;2022-12-18T03:46:59;102076.50;;;-7.83;79.62
19114;BME280;9689;51.052;13.772;2022-12-18T03:52:09;102077.13;;;-7.86;79.19
19114;BME280;9689;51.052;13.772;2022-12-18T03:57:16;102085.63;;;-7.95;79.18
19114;BME280;9689;51.052;13.772;2022-12-18T04:02:22;102089.28;;;-8.12;79.19
19114;BME280;9689;51.052;13.772;2022-12-18T04:07:25;102091.16;;;-8.20;79.45
19114;BME280;9689;51.052;13.772;2022-12-18T04:12:29;102091.69;;;-8.24;79.89
19114;BME280;9689;51.052;13.772;2022-12-18T04:17:32;102098.50;;;-8.33;80.46
19114;BME280;9689;51.052;13.772;2022-12-18T04:22:34;102114.81;;;-8.40;80.51
19114;BME280;9689;51.052;13.772;2022-12-18T04:27:35;102100.00;;;-8.45;80.77
19114;BME280;9689;51.052;13.772;2022-12-18T04:32:38;102107.44;;;-8.57;79.92
19114;BME280;9689;51.052;13.772;2022-12-18T04:37:41;102111.22;;;-8.52;80.59
19114;BME280;9689;51.052;13.772;2022-12-18T04:42:42;102108.97;;;-8.59;80.67
19114;BME280;9689;51.052;13.772;2022-12-18T04:47:44;102114.63;;;-8.62;80.62
19114;BME280;9689;51.052;13.772;2022-12-18T04:52:45;102118.66;;;-8.64;80.68
19114;BME280;9689;51.052;13.772;2022-12-18T04:57:46;102122.81;;;-8.74;80.96
19114;BME280;9689;51.052;13.772;2022-12-18T05:02:48;102103.22;;;-8.77;80.76
19114;BME280;9689;51.052;13.772;2022-12-18T05:07:49;102121.13;;;-8.84;81.09
19114;BME280;9689;51.052;13.772;2022-12-18T05:12:50;102120.72;;;-8.89;81.42
19114;BME280;9689;51.052;13.772;2022-12-18T05:18:02;102114.22;;;-8.95;81.00
19114;BME280;9689;51.052;13.772;2022-12-18T05:23:03;102108.53;;;-9.03;80.97
19114;BME280;9689;51.052;13.772;2022-12-18T05:28:04;102124.59;;;-9.02;80.95
19114;BME280;9689;51.052;13.772;2022-12-18T05:33:06;102124.03;;;-9.08;81.62
19114;BME280;9689;51.052;13.772;2022-12-18T05:38:07;102111.28;;;-9.10;81.09
19114;BME280;9689;51.052;13.772;2022-12-18T05:43:08;102119.88;;;-9.08;81.31
19114;BME280;9689;51.052;13.772;2022-12-18T05:48:11;102124.38;;;-9.14;81.19
19114;BME280;9689;51.052;13.772;2022-12-18T05:53:13;102124.13;;;-9.17;81.13
19114;BME280;9689;51.052;13.772;2022-12-18T05:58:15;102125.00;;;-9.17;81.36
19114;BME280;9689;51.052;13.772;2022-12-18T06:03:17;102134.91;;;-9.28;81.46
19114;BME280;9689;51.052;13.772;2022-12-18T06:08:18;102127.59;;;-9.25;81.07
19114;BME280;9689;51.052;13.772;2022-12-18T06:13:19;102134.63;;;-9.31;81.17
19114;BME280;9689;51.052;13.772;2022-12-18T06:18:21;102139.66;;;-9.31;81.11
19114;BME280;9689;51.052;13.772;2022-12-18T06:23:22;102149.97;;;-9.38;81.36
19114;BME280;9689;51.052;13.772;2022-12-18T06:28:23;102150.47;;;-9.43;81.45
19114;BME280;9689;51.052;13.772;2022-12-18T06:33:27;102145.53;;;-9.41;81.42
19114;BME280;9689;51.052;13.772;2022-12-18T06:38:28;102161.03;;;-9.47;81.67
19114;BME280;9689;51.052;13.772;2022-12-18T06:43:31;102159.25;;;-9.48;80.88
19114;BME280;9689;51.052;13.772;2022-12-18T06:48:38;102156.78;;;-9.56;80.99
19114;BME280;9689;51.052;13.772;2022-12-18T06:53:39;102156.72;;;-9.48;81.53
19114;BME280;9689;51.052;13.772;2022-12-18T06:58:42;102174.00;;;-9.52;81.20
19114;BME280;9689;51.052;13.772;2022-12-18T07:03:46;102176.50;;;-9.52;81.53
19114;BME280;9689;51.052;13.772;2022-12-18T07:08:48;102186.34;;;-9.55;81.03
19114;BME280;9689;51.052;13.772;2022-12-18T07:13:49;102189.13;;;-9.52;81.50
19114;BME280;9689;51.052;13.772;2022-12-18T07:18:51;102193.28;;;-9.53;81.58
19114;BME280;9689;51.052;13.772;2022-12-18T07:23:52;102184.66;;;-9.46;81.36
19114;BME280;9689;51.052;13.772;2022-12-18T07:28:55;102186.69;;;-9.42;81.22
19114;BME280;9689;51.052;13.772;2022-12-18T07:33:58;102186.06;;;-9.40;81.73
19114;BME280;9689;51.052;13.772;2022-12-18T07:38:59;102204.47;;;-9.41;81.59
19114;BME280;9689;51.052;13.772;2022-12-18T07:44:00;102212.47;;;-9.36;81.38
19114;BME280;9689;51.052;13.772;2022-12-18T07:49:02;102206.00;;;-9.24;80.79
19114;BME280;9689;51.052;13.772;2022-12-18T07:54:04;102214.13;;;-9.18;80.71
19114;BME280;9689;51.052;13.772;2022-12-18T07:59:04;102218.22;;;-9.09;81.49
19114;BME280;9689;51.052;13.772;2022-12-18T08:04:07;102201.06;;;-9.03;81.05
19114;BME280;9689;51.052;13.772;2022-12-18T08:09:10;102204.19;;;-8.87;80.94
19114;BME280;9689;51.052;13.772;2022-12-18T08:14:10;102200.09;;;-8.76;80.81
19114;BME280;9689;51.052;13.772;2022-12-18T08:19:13;102189.41;;;-8.64;80.61
19114;BME280;9689;51.052;13.772;2022-12-18T08:24:14;102184.47;;;-8.33;81.94
19114;BME280;9689;51.052;13.772;2022-12-18T08:29:15;102188.78;;;-8.22;80.95
19114;BME280;9689;51.052;13.772;2022-12-18T08:34:21;102196.91;;;-8.16;81.13
19114;BME280;9689;51.052;13.772;2022-12-18T08:39:22;102193.50;;;-7.96;80.74
19114;BME280;9689;51.052;13.772;2022-12-18T08:44:23;102194.41;;;-7.85;79.85
19114;BME280;9689;51.052;13.772;2022-12-18T08:49:42;102193.94;;;-7.71;80.37
19114;BME280;9689;51.052;13.772;2022-12-18T08:54:42;102190.63;;;-7.50;80.60
19114;BME280;9689;51.052;13.772;2022-12-18T08:59:43;102194.06;;;-7.29;80.33
19114;BME280;9689;51.052;13.772;2022-12-18T09:04:47;102206.44;;;-7.12;81.01
19114;BME280;9689;51.052;13.772;2022-12-18T09:09:56;102183.72;;;-6.90;80.31
19114;BME280;9689;51.052;13.772;2022-12-18T09:14:57;102193.88;;;-6.58;80.46
19114;BME280;9689;51.052;13.772;2022-12-18T09:19:59;102205.47;;;-6.39;80.09
19114;BME280;9689;51.052;13.772;2022-12-18T09:25:00;102219.53;;;-6.11;80.27
19114;BME280;9689;51.052;13.772;2022-12-18T09:30:01;102226.69;;;-5.83;80.13
19114;BME280;9689;51.052;13.772;2022-12-18T09:35:04;102221.63;;;-5.50;80.88
19114;BME280;9689;51.052;13.772;2022-12-18T09:40:06;102210.97;;;-5.22;80.76
19114;BME280;9689;51.052;13.772;2022-12-18T09:45:12;102212.81;;;-4.74;81.18
19114;BME280;9689;51.052;13.772;2022-12-18T09:50:23;102209.69;;;-4.47;80.42
19114;BME280;9689;51.052;13.772;2022-12-18T09:55:28;102204.81;;;-4.32;80.12
19114;BME280;9689;51.052;13.772;2022-12-18T10:00:37;102191.59;;;-4.15;79.33
19114;BME280;9689;51.052;13.772;2022-12-18T10:05:49;102179.69;;;-3.91;78.70
19114;BME280;9689;51.052;13.772;2022-12-18T10:10:57;102175.25;;;-3.68;77.66
19114;BME280;9689;51.052;13.772;2022-12-18T10:16:11;102156.25;;;-3.60;76.83
19114;BME280;9689;51.052;13.772;2022-12-18T10:21:17;102148.44;;;-3.50;76.07
19114;BME280;9689;51.052;13.772;2022-12-18T10:26:19;102149.63;;;-3.45;75.17
19114;BME280;9689;51.052;13.772;2022-12-18T10:31:22;102132.78;;;-3.43;75.15
19114;BME280;9689;51.052;13.772;2022-12-18T10:36:25;102118.75;;;-3.23;75.17
19114;BME280;9689;51.052;13.772;2022-12-18T10:41:26;102112.22;;;-3.20;75.23
19114;BME280;9689;51.052;13.772;2022-12-18T10:46:28;102108.00;;;-3.19;75.02
19114;BME280;9689;51.052;13.772;2022-12-18T10:51:33;102112.31;;;-3.18;74.32
19114;BME280;9689;51.052;13.772;2022-12-18T10:56:35;102112.00;;;-2.96;73.96
19114;BME280;9689;51.052;13.772;2022-12-18T11:01:51;102110.16;;;-2.99;73.49
19114;BME280;9689;51.052;13.772;2022-12-18T11:06:58;102112.50;;;-3.02;73.69
19114;BME280;9689;51.052;13.772;2022-12-18T11:12:01;102105.44;;;-2.93;73.48
19114;BME280;9689;51.052;13.772;2022-12-18T11:17:02;102096.50;;;-2.86;72.72
19114;BME280;9689;51.052;13.772;2022-12-18T11:22:25;102088.75;;;-2.88;72.97
19114;BME280;9689;51.052;13.772;2022-12-18T11:27:28;102067.41;;;-2.62;75.00
19114;BME280;9689;51.052;13.772;2022-12-18T11:32:33;102080.94;;;-2.63;72.22
19114;BME280;9689;51.052;13.772;2022-12-18T11:37:39;102078.78;;;-2.70;72.09
19114;BME280;9689;51.052;13.772;2022-12-18T11:42:46;102071.25;;;-2.68;71.88
19114;BME280;9689;51.052;13.772;2022-12-18T11:47:54;102074.78;;;-2.66;72.09
19114;BME280;9689;51.052;13.772;2022-12-18T11:52:58;102077.44;;;-2.65;71.93
19114;BME280;9689;51.052;13.772;2022-12-18T11:58:12;102088.03;;;-2.59;71.34
19114;BME280;9689;51.052;13.772;2022-12-18T12:03:36;102089.38;;;-2.64;71.66
19114;BME280;9689;51.052;13.772;2022-12-18T12:08:52;102080.47;;;-2.70;71.15
19114;BME280;9689;51.052;13.772;2022-12-18T12:14:06;102095.28;;;-2.65;71.21
19114;BME280;9689;51.052;13.772;2022-12-18T12:19:24;102096.56;;;-2.58;71.44
19114;BME280;9689;51.052;13.772;2022-12-18T12:24:38;102102.75;;;-2.68;71.49
19114;BME280;9689;51.052;13.772;2022-12-18T12:29:50;102106.69;;;-2.60;71.30
19114;BME280;9689;51.052;13.772;2022-12-18T12:35:11;102106.84;;;-2.57;71.12
19114;BME280;9689;51.052;13.772;2022-12-18T12:40:18;102132.63;;;-2.39;73.55
19114;BME280;9689;51.052;13.772;2022-12-18T12:45:44;102131.19;;;-2.48;71.99
19114;BME280;9689;51.052;13.772;2022-12-18T12:50:47;102120.31;;;-2.59;70.73
19114;BME280;9689;51.052;13.772;2022-12-18T12:55:51;102111.78;;;-2.73;71.35
19114;BME280;9689;51.052;13.772;2022-12-18T13:01:01;102113.19;;;-2.78;71.08
19114;BME280;9689;51.052;13.772;2022-12-18T13:06:09;102110.25;;;-2.84;71.28
19114;BME280;9689;51.052;13.772;2022-12-18T13:11:29;102101.63;;;-2.99;71.57
19114;BME280;9689;51.052;13.772;2022-12-18T13:17:26;102099.34;;;-3.08;72.20
19114;BME280;9689;51.052;13.772;2022-12-18T13:22:34;102093.47;;;-3.07;72.04
19114;BME280;9689;51.052;13.772;2022-12-18T13:27:59;102111.03;;;-3.25;72.12
19114;BME280;9689;51.052;13.772;2022-12-18T13:39:21;102101.91;;;-3.34;72.83
19114;BME280;9689;51.052;13.772;2022-12-18T13:44:33;102098.00;;;-3.29;72.56
19114;BME280;9689;51.052;13.772;2022-12-18T13:49:41;102107.88;;;-3.34;72.87
19114;BME280;9689;51.052;13.772;2022-12-18T13:54:46;102090.22;;;-3.31;72.91
19114;BME280;9689;51.052;13.772;2022-12-18T13:59:50;102091.50;;;-3.24;72.78
19114;BME280;9689;51.052;13.772;2022-12-18T14:04:52;102103.53;;;-3.48;73.71
19114;BME280;9689;51.052;13.772;2022-12-18T14:09:54;102096.59;;;-3.64;74.13
19114;BME280;9689;51.052;13.772;2022-12-18T14:15:23;102101.47;;;-3.67;74.01
19114;BME280;9689;51.052;13.772;2022-12-18T14:20:26;102106.44;;;-3.82;74.84
19114;BME280;9689;51.052;13.772;2022-12-18T14:25:29;102100.56;;;-3.81;74.84
19114;BME280;9689;51.052;13.772;2022-12-18T14:30:35;102083.28;;;-3.98;75.80
19114;BME280;9689;51.052;13.772;2022-12-18T14:35:38;102073.44;;;-4.05;75.71
19114;BME280;9689;51.052;13.772;2022-12-18T14:40:39;102061.09;;;-4.12;76.24
19114;BME280;9689;51.052;13.772;2022-12-18T14:45:43;102063.34;;;-4.17;76.63
19114;BME280;9689;51.052;13.772;2022-12-18T14:50:55;102067.50;;;-4.17;76.70
19114;BME280;9689;51.052;13.772;2022-12-18T14:55:56;102072.56;;;-4.31;77.42
19114;BME280;9689;51.052;13.772;2022-12-18T15:00:59;102081.06;;;-3.67;81.55
19114;BME280;9689;51.052;13.772;2022-12-18T15:06:16;102082.81;;;-3.79;78.27
19114;BME280;9689;51.052;13.772;2022-12-18T15:11:27;102073.13;;;-4.10;77.41
19114;BME280;9689;51.052;13.772;2022-12-18T15:16:29;102067.63;;;-4.41;77.79
19114;BME280;9689;51.052;13.772;2022-12-18T15:21:30;102079.09;;;-4.59;78.63
19114;BME280;9689;51.052;13.772;2022-12-18T15:26:36;102073.56;;;-4.65;78.94
19114;BME280;9689;51.052;13.772;2022-12-18T15:31:40;102073.91;;;-4.72;78.88
19114;BME280;9689;51.052;13.772;2022-12-18T15:36:40;102067.94;;;-4.73;79.03
19114;BME280;9689;51.052;13.772;2022-12-18T15:41:41;102061.25;;;-4.84;79.56
19114;BME280;9689;51.052;13.772;2022-12-18T15:47:09;102068.00;;;-4.85;79.53
19114;BME280;9689;51.052;13.772;2022-12-18T15:52:12;102058.47;;;-4.75;80.54
19114;BME280;9689;51.052;13.772;2022-12-18T15:57:25;102058.81;;;-4.82;79.53
19114;BME280;9689;51.052;13.772;2022-12-18T16:02:27;102050.75;;;-4.89;79.55
19114;BME280;9689;51.052;13.772;2022-12-18T16:07:28;102059.47;;;-4.97;80.26
19114;BME280;9689;51.052;13.772;2022-12-18T16:12:29;102055.28;;;-4.96;79.93
19114;BME280;9689;51.052;13.772;2022-12-18T16:17:32;102042.81;;;-4.93;79.56
19114;BME280;9689;51.052;13.772;2022-12-18T16:22:32;102040.16;;;-4.95;79.83
19114;BME280;9689;51.052;13.772;2022-12-18T16:27:33;102044.13;;;-4.98;80.06
19114;BME280;9689;51.052;13.772;2022-12-18T16:32:36;102045.53;;;-4.90;79.78
19114;BME280;9689;51.052;13.772;2022-12-18T16:37:37;102033.41;;;-4.94;80.32
19114;BME280;9689;51.052;13.772;2022-12-18T16:42:39;102038.03;;;-4.89;80.00
19114;BME280;9689;51.052;13.772;2022-12-18T16:47:42;102025.06;;;-4.80;79.46
19114;BME280;9689;51.052;13.772;2022-12-18T16:52:43;102016.34;;;-4.84;79.86
19114;BME280;9689;51.052;13.772;2022-12-18T16:57:44;102028.19;;;-4.84;79.68
19114;BME280;9689;51.052;13.772;2022-12-18T17:02:46;102027.50;;;-4.81;79.84
19114;BME280;9689;51.052;13.772;2022-12-18T17:07:47;102022.53;;;-4.80;80.01
19114;BME280;9689;51.052;13.772;2022-12-18T17:12:50;102011.38;;;-4.82;79.49
19114;BME280;9689;51.052;13.772;2022-12-18T17:17:52;102013.03;;;-4.82;79.96
19114;BME280;9689;51.052;13.772;2022-12-18T17:22:55;102007.16;;;-4.81;79.86
19114;BME280;9689;51.052;13.772;2022-12-18T17:27:56;102010.16;;;-4.75;79.42
19114;BME280;9689;51.052;13.772;2022-12-18T17:32:59;102009.41;;;-4.86;80.07
19114;BME280;9689;51.052;13.772;2022-12-18T17:37:59;101991.56;;;-4.74;79.26
19114;BME280;9689;51.052;13.772;2022-12-18T17:43:00;101989.91;;;-4.74;79.56
19114;BME280;9689;51.052;13.772;2022-12-18T17:48:03;101986.22;;;-4.66;79.63
19114;BME280;9689;51.052;13.772;2022-12-18T17:53:04;101985.19;;;-4.56;79.27
19114;BME280;9689;51.052;13.772;2022-12-18T17:58:04;101982.44;;;-4.59;79.13
19114;BME280;9689;51.052;13.772;2022-12-18T18:03:07;101981.56;;;-4.60;79.03
19114;BME280;9689;51.052;13.772;2022-12-18T18:08:08;101971.38;;;-4.60;79.02
19114;BME280;9689;51.052;13.772;2022-12-18T18:13:18;101980.50;;;-4.50;79.10
19114;BME280;9689;51.052;13.772;2022-12-18T18:18:46;101973.50;;;-4.41;78.21
19114;BME280;9689;51.052;13.772;2022-12-18T18:23:47;101977.00;;;-4.39;78.45
19114;BME280;9689;51.052;13.772;2022-12-18T18:28:52;101974.56;;;-4.37;77.96
19114;BME280;9689;51.052;13.772;2022-12-18T18:33:55;101958.25;;;-4.28;77.67
19114;BME280;9689;51.052;13.772;2022-12-18T18:38:58;101956.72;;;-4.25;77.26
19114;BME280;9689;51.052;13.772;2022-12-18T18:43:59;101945.06;;;-4.22;77.14
19114;BME280;9689;51.052;13.772;2022-12-18T18:49:02;101949.50;;;-4.06;76.59
19114;BME280;9689;51.052;13.772;2022-12-18T18:54:04;101941.84;;;-4.06;76.29
19114;BME280;9689;51.052;13.772;2022-12-18T18:59:05;101930.19;;;-4.16;76.89
19114;BME280;9689;51.052;13.772;2022-12-18T19:04:07;101933.03;;;-4.11;76.76
19114;BME280;9689;51.052;13.772;2022-12-18T19:09:08;101917.97;;;-4.08;76.71
19114;BME280;9689;51.052;13.772;2022-12-18T19:14:12;101904.53;;;-4.06;76.93
19114;BME280;9689;51.052;13.772;2022-12-18T19:19:14;101892.09;;;-4.14;76.67
19114;BME280;9689;51.052;13.772;2022-12-18T19:24:21;101885.63;;;-4.09;76.51
19114;BME280;9689;51.052;13.772;2022-12-18T19:29:22;101886.13;;;-4.15;76.77
19114;BME280;9689;51.052;13.772;2022-12-18T19:34:25;101883.09;;;-4.09;77.25
19114;BME280;9689;51.052;13.772;2022-12-18T19:39:26;101872.34;;;-4.05;76.90
19114;BME280;9689;51.052;13.772;2022-12-18T19:44:27;101859.88;;;-4.01;76.82
19114;BME280;9689;51.052;13.772;2022-12-18T19:49:29;101849.41;;;-4.05;76.61
19114;BME280;9689;51.052;13.772;2022-12-18T19:54:31;101845.13;;;-4.06;76.53
19114;BME280;9689;51.052;13.772;2022-12-18T19:59:32;101849.13;;;-3.96;75.74
19114;BME280;9689;51.052;13.772;2022-12-18T20:04:34;101835.78;;;-3.92;75.78
19114;BME280;9689;51.052;13.772;2022-12-18T20:09:35;101838.31;;;-3.92;75.39
19114;BME280;9689;51.052;13.772;2022-12-18T20:14:37;101847.63;;;-3.93;75.38
19114;BME280;9689;51.052;13.772;2022-12-18T20:19:39;101849.50;;;-3.90;75.19
19114;BME280;9689;51.052;13.772;2022-12-18T20:24:40;101837.06;;;-3.86;75.34
19114;BME280;9689;51.052;13.772;2022-12-18T20:29:41;101840.22;;;-3.90;74.93
19114;BME280;9689;51.052;13.772;2022-12-18T20:34:46;101829.81;;;-3.80;74.82
19114;BME280;9689;51.052;13.772;2022-12-18T20:39:48;101826.88;;;-3.86;74.65
19114;BME280;9689;51.052;13.772;2022-12-18T20:44:50;101825.50;;;-3.81;74.58
19114;BME280;9689;51.052;13.772;2022-12-18T20:49:52;101817.25;;;-3.77;74.61
19114;BME280;9689;51.052;13.772;2022-12-18T20:54:53;101803.41;;;-3.67;74.38
19114;BME280;9689;51.052;13.772;2022-12-18T20:59:56;101789.00;;;-3.66;74.16
19114;BME280;9689;51.052;13.772;2022-12-18T21:04:58;101805.72;;;-3.57;73.55
19114;BME280;9689;51.052;13.772;2022-12-18T21:09:59;101806.19;;;-3.49;73.15
19114;BME280;9689;51.052;13.772;2022-12-18T21:15:00;101808.47;;;-3.54;73.03
19114;BME280;9689;51.052;13.772;2022-12-18T21:20:04;101826.31;;;-3.54;72.98
19114;BME280;9689;51.052;13.772;2022-12-18T21:25:06;101824.44;;;-3.56;73.25
19114;BME280;9689;51.052;13.772;2022-12-18T21:30:08;101811.25;;;-3.64;74.01
19114;BME280;9689;51.052;13.772;2022-12-18T21:35:11;101820.66;;;-3.63;73.43
19114;BME280;9689;51.052;13.772;2022-12-18T21:40:13;101812.31;;;-3.60;73.64
19114;BME280;9689;51.052;13.772;2022-12-18T21:45:14;101820.66;;;-3.63;73.61
19114;BME280;9689;51.052;13.772;2022-12-18T21:50:17;101806.16;;;-3.64;74.20
19114;BME280;9689;51.052;13.772;2022-12-18T21:55:17;101815.56;;;-3.63;73.94
19114;BME280;9689;51.052;13.772;2022-12-18T22:00:18;101811.25;;;-3.64;74.18
19114;BME280;9689;51.052;13.772;2022-12-18T22:05:21;101810.69;;;-3.73;74.14
19114;BME280;9689;51.052;13.772;2022-12-18T22:10:22;101788.53;;;-3.74;74.49
19114;BME280;9689;51.052;13.772;2022-12-18T22:15:22;101797.19;;;-3.85;75.30
19114;BME280;9689;51.052;13.772;2022-12-18T22:20:25;101788.84;;;-3.83;75.38
19114;BME280;9689;51.052;13.772;2022-12-18T22:25:26;101795.59;;;-3.83;75.21
19114;BME280;9689;51.052;13.772;2022-12-18T22:30:27;101790.25;;;-3.88;75.84
19114;BME280;9689;51.052;13.772;2022-12-18T22:35:30;101781.91;;;-3.85;75.62
19114;BME280;9689;51.052;13.772;2022-12-18T22:40:30;101786.13;;;-3.86;75.66
19114;BME280;9689;51.052;13.772;2022-12-18T22:45:31;101782.53;;;-3.89;75.77
19114;BME280;9689;51.052;13.772;2022-12-18T22:50:38;101773.69;;;-3.81;75.38
19114;BME280;9689;51.052;13.772;2022-12-18T22:55:39;101763.28;;;-3.84;75.63
19114;BME280;9689;51.052;13.772;2022-12-18T23:00:40;101751.09;;;-3.90;75.53
19114;BME280;9689;51.052;13.772;2022-12-18T23:05:42;101744.41;;;-3.88;75.46
19114;BME280;9689;51.052;13.772;2022-12-18T23:10:43;101734.41;;;-3.85;75.32
19114;BME280;9689;51.052;13.772;2022-12-18T23:15:44;101751.34;;;-3.85;74.72
19114;BME280;9689;51.052;13.772;2022-12-18T23:20:47;101718.66;;;-3.92;75.08
19114;BME280;9689;51.052;13.772;2022-12-18T23:25:48;101717.19;;;-3.89;74.45
19114;BME280;9689;51.052;13.772;2022-12-18T23:30:49;101701.91;;;-3.89;74.57
19114;BME280;9689;51.052;13.772;2022-12-18T23:35:54;101694.84;;;-3.93;74.85
19114;BME280;9689;51.052;13.772;2022-12-18T23:40:57;101691.97;;;-3.99;74.78
19114;BME280;9689;51.052;13.772;2022-12-18T23:45:58;101671.22;;;-4.05;74.91
19114;BME280;9689;51.052;13.772;2022-12-18T23:51:05;101663.84;;;-4.01;74.87
19114;BME280;9689;51.052;13.772;2022-12-18T23:56:08;101649.91;;;-4.07;74.70
